Terminal Aerodrome Forecast
Issued by NWS

Home | Current Version | Previous Version | Text Only | Print | Product List | Glossary Off
Versions: 1 2 3 4 5 6 7 8 9 10 11 12

482
FTUS43 KMPX 292324
TAFAXN
TAF
KAXN 292324Z 3000/3024 07006KT P6SM FEW050
     FM301400 06015G24KT P6SM FEW050 BKN250=

USA.gov is the U.S. government's official web portal to all federal, state and local government web resources and services.